createdAt,value
2018-02-19T00:00:14.104Z,4.60
2018-02-19T00:01:14.326Z,4.00
2018-02-19T00:02:14.566Z,4.20
2018-02-19T00:03:14.807Z,4.00
2018-02-19T00:04:15.049Z,4.20
2018-02-19T00:05:15.294Z,3.90
2018-02-19T00:06:15.526Z,4.10
2018-02-19T00:07:15.767Z,3.90
2018-02-19T00:08:16.006Z,4.30
2018-02-19T00:09:16.245Z,3.90
2018-02-19T00:10:16.487Z,4.10
2018-02-19T00:11:16.732Z,4.20
2018-02-19T00:12:16.973Z,4.30
2018-02-19T00:13:17.211Z,4.30
2018-02-19T00:14:17.451Z,4.10
2018-02-19T00:15:17.693Z,3.90
2018-02-19T00:16:17.945Z,4.30
2018-02-19T00:17:18.165Z,4.00
2018-02-19T00:18:18.391Z,4.20
2018-02-19T00:19:18.632Z,4.10
2018-02-19T00:20:18.881Z,4.00
2018-02-19T00:21:19.110Z,4.20
2018-02-19T00:22:19.350Z,4.00
2018-02-19T00:23:19.590Z,4.30
2018-02-19T00:24:19.828Z,4.30
2018-02-19T00:25:20.070Z,4.40
2018-02-19T00:26:20.316Z,4.50
2018-02-19T00:27:20.556Z,4.30
2018-02-19T00:28:20.795Z,4.40
2018-02-19T00:29:21.035Z,4.30
2018-02-19T00:30:21.275Z,4.40
2018-02-19T00:31:21.518Z,4.50
2018-02-19T00:32:21.761Z,4.40
2018-02-19T00:33:21.996Z,4.50
2018-02-19T00:34:22.235Z,4.50
2018-02-19T00:35:22.481Z,4.40
2018-02-19T00:36:22.712Z,4.30
2018-02-19T00:37:22.955Z,4.60
2018-02-19T00:38:23.200Z,4.70
2018-02-19T00:39:23.434Z,4.20
2018-02-19T00:40:23.699Z,4.70
2018-02-19T00:41:23.914Z,4.40
2018-02-19T00:42:24.153Z,4.90
2018-02-19T00:43:24.394Z,4.70
2018-02-19T00:44:24.640Z,4.30
2018-02-19T00:45:24.886Z,4.90
2018-02-19T00:46:25.118Z,4.60
2018-02-19T00:47:25.358Z,4.60
2018-02-19T00:48:25.599Z,4.60
2018-02-19T00:49:25.836Z,4.40
2018-02-19T00:50:26.079Z,4.60
2018-02-19T00:51:26.324Z,4.80
2018-02-19T00:52:26.566Z,4.80
2018-02-19T00:53:27.081Z,4.20
2018-02-19T00:54:27.097Z,4.90
2018-02-19T00:55:27.331Z,5.30
2018-02-19T00:56:27.575Z,5.30
2018-02-19T00:57:27.811Z,4.80
2018-02-19T00:58:28.051Z,5.00
2018-02-19T00:59:28.291Z,4.70
2018-02-19T01:00:28.536Z,5.00
2018-02-19T01:01:28.786Z,4.80
2018-02-19T01:02:29.021Z,4.90
2018-02-19T01:03:29.260Z,4.50
2018-02-19T01:04:29.501Z,4.70
2018-02-19T01:05:29.739Z,4.70
2018-02-19T01:06:29.981Z,5.00
2018-02-19T01:07:30.225Z,4.40
2018-02-19T01:08:30.470Z,4.70
2018-02-19T01:09:30.706Z,5.00
2018-02-19T01:10:30.940Z,4.90
2018-02-19T01:11:31.181Z,4.90
2018-02-19T01:12:31.419Z,4.90
2018-02-19T01:13:31.657Z,5.10
2018-02-19T01:14:31.896Z,5.00
2018-02-19T01:15:32.135Z,5.20
2018-02-19T01:16:32.374Z,5.10
2018-02-19T01:17:32.616Z,5.10
2018-02-19T01:18:32.860Z,5.30
2018-02-19T01:19:33.105Z,5.00
2018-02-19T01:20:33.338Z,5.30
2018-02-19T01:21:33.578Z,5.30
2018-02-19T01:22:33.818Z,5.20
2018-02-19T01:23:34.058Z,5.20
2018-02-19T01:24:34.299Z,5.40
2018-02-19T01:25:34.545Z,4.90
2018-02-19T01:26:34.784Z,5.50
2018-02-19T01:27:35.022Z,5.10
2018-02-19T01:28:35.263Z,5.10
2018-02-19T01:29:35.502Z,5.00
2018-02-19T01:30:35.743Z,5.40
2018-02-19T01:31:35.982Z,5.20
2018-02-19T01:32:36.231Z,5.20
2018-02-19T01:33:36.470Z,5.00
2018-02-19T01:34:36.707Z,5.10
2018-02-19T01:35:36.947Z,5.40
2018-02-19T01:36:37.189Z,5.30
2018-02-19T01:37:37.439Z,5.20
2018-02-19T01:38:37.661Z,5.70
2018-02-19T01:39:37.901Z,5.60
2018-02-19T01:40:38.141Z,5.40
2018-02-19T01:41:38.382Z,4.90
2018-02-19T01:42:38.622Z,5.70
2018-02-19T01:43:38.868Z,5.40
2018-02-19T01:44:39.113Z,5.70
2018-02-19T01:45:39.346Z,5.90
2018-02-19T01:46:39.586Z,5.50
2018-02-19T01:47:39.827Z,5.20
2018-02-19T01:48:40.069Z,5.60
2018-02-19T01:49:40.307Z,6.00
2018-02-19T01:50:40.555Z,5.40
2018-02-19T01:51:40.800Z,5.50
2018-02-19T01:52:41.033Z,5.00
2018-02-19T01:53:41.274Z,5.60
2018-02-19T01:54:41.516Z,5.90
2018-02-19T01:55:41.753Z,5.60
2018-02-19T01:56:41.996Z,5.70
2018-02-19T01:57:49.364Z,5.80
2018-02-19T01:58:49.110Z,5.50
2018-02-19T01:59:49.047Z,6.00
2018-02-19T02:00:49.433Z,5.90
2018-02-19T02:01:49.828Z,5.50
2018-02-19T02:02:51.934Z,5.60
2018-02-19T02:03:51.499Z,5.90
2018-02-19T02:04:44.627Z,6.00
2018-02-19T02:05:44.867Z,5.80
2018-02-19T02:06:45.107Z,6.20
2018-02-19T02:07:45.347Z,5.80
2018-02-19T02:08:45.593Z,6.50
2018-02-19T02:09:45.838Z,5.80
2018-02-19T02:10:46.072Z,5.90
2018-02-19T02:11:46.311Z,6.20
2018-02-19T02:12:46.552Z,5.80
2018-02-19T02:13:46.795Z,5.90
2018-02-19T02:14:47.032Z,5.50
2018-02-19T02:15:47.278Z,6.00
2018-02-19T02:16:47.523Z,5.90
2018-02-19T02:17:47.756Z,6.30
2018-02-19T02:18:47.998Z,5.70
2018-02-19T02:19:48.236Z,6.10
2018-02-19T02:20:48.474Z,6.00
2018-02-19T02:21:48.719Z,6.70
2018-02-19T02:22:48.964Z,6.00
2018-02-19T02:23:49.250Z,6.20
2018-02-19T02:24:49.443Z,6.40
2018-02-19T02:25:49.684Z,6.20
2018-02-19T02:26:49.923Z,6.60
2018-02-19T02:27:50.162Z,6.60
2018-02-19T02:28:50.404Z,6.30
2018-02-19T02:29:50.651Z,6.30
2018-02-19T02:30:50.898Z,6.00
2018-02-19T02:31:51.129Z,6.20
2018-02-19T02:32:51.370Z,5.70
2018-02-19T02:33:51.610Z,6.10
2018-02-19T02:34:51.851Z,6.20
2018-02-19T02:35:52.094Z,6.10
2018-02-19T02:36:52.338Z,6.60
2018-02-19T02:37:52.584Z,6.20
2018-02-19T02:38:52.815Z,5.60
2018-02-19T02:39:53.056Z,6.40
2018-02-19T02:40:53.296Z,5.90
2018-02-19T02:41:53.534Z,6.40
2018-02-19T02:42:53.775Z,5.90
2018-02-19T02:43:54.024Z,6.10
2018-02-19T02:44:54.273Z,6.00
2018-02-19T02:45:54.501Z,6.40
2018-02-19T02:46:54.743Z,6.60
2018-02-19T02:47:54.983Z,6.10
2018-02-19T02:48:55.224Z,6.20
2018-02-19T02:49:55.463Z,6.30
2018-02-19T02:50:55.710Z,6.10
2018-02-19T02:51:55.956Z,6.30
2018-02-19T02:52:56.187Z,6.40
2018-02-19T02:53:56.430Z,6.00
2018-02-19T02:54:56.671Z,6.20
2018-02-19T02:55:56.908Z,6.30
2018-02-19T02:56:57.148Z,6.50
2018-02-19T02:57:57.395Z,6.30
2018-02-19T02:58:57.641Z,6.60
2018-02-19T02:59:57.875Z,6.70
2018-02-19T03:00:58.114Z,6.40
2018-02-19T03:01:58.354Z,6.50
2018-02-19T03:02:58.592Z,6.40
2018-02-19T03:03:58.834Z,6.40
2018-02-19T03:04:59.079Z,6.10
2018-02-19T03:05:59.319Z,6.50
2018-02-19T03:06:59.564Z,6.70
2018-02-19T03:07:59.800Z,6.60
2018-02-19T03:09:00.040Z,6.60
2018-02-19T03:10:00.280Z,6.50
2018-02-19T03:11:00.518Z,6.30
2018-02-19T03:12:00.759Z,6.40
2018-02-19T03:13:01.000Z,6.90
2018-02-19T03:14:01.240Z,6.40
2018-02-19T03:15:01.483Z,6.60
2018-02-19T03:16:01.721Z,6.50
2018-02-19T03:17:01.964Z,6.70
2018-02-19T03:18:02.201Z,6.60
2018-02-19T03:19:02.430Z,6.40
2018-02-19T03:20:02.670Z,7.00
2018-02-19T03:21:02.912Z,7.00
2018-02-19T03:22:03.149Z,6.30
2018-02-19T03:23:03.388Z,6.60
2018-02-19T03:24:03.632Z,6.60
2018-02-19T03:25:03.865Z,6.90
2018-02-19T03:26:04.110Z,6.80
2018-02-19T03:27:04.353Z,6.90
2018-02-19T03:28:04.599Z,6.90
2018-02-19T03:29:04.831Z,6.90
2018-02-19T03:30:05.075Z,6.50
2018-02-19T03:31:05.321Z,7.10
2018-02-19T03:32:05.549Z,6.70
2018-02-19T03:33:05.790Z,7.20
2018-02-19T03:34:06.038Z,6.40
2018-02-19T03:35:06.284Z,6.30
2018-02-19T03:36:06.518Z,6.90
2018-02-19T03:37:06.756Z,6.90
2018-02-19T03:38:06.999Z,7.20
2018-02-19T03:39:07.233Z,6.50
2018-02-19T03:40:07.476Z,7.00
2018-02-19T03:41:07.716Z,7.10
2018-02-19T03:42:07.956Z,6.90
2018-02-19T03:43:08.196Z,6.60
2018-02-19T03:44:08.438Z,7.50
2018-02-19T03:45:08.685Z,6.90
2018-02-19T03:46:08.919Z,6.60
2018-02-19T03:47:09.156Z,6.40
2018-02-19T03:48:09.396Z,6.90
2018-02-19T03:49:09.637Z,6.80
2018-02-19T03:50:09.878Z,6.50
2018-02-19T03:51:10.122Z,6.90
2018-02-19T03:52:10.361Z,7.10
2018-02-19T03:53:10.606Z,6.90
2018-02-19T03:54:10.840Z,6.80
2018-02-19T03:55:11.079Z,6.50
2018-02-19T03:56:11.319Z,7.10
2018-02-19T03:57:11.560Z,6.70
2018-02-19T03:58:11.801Z,7.20
2018-02-19T03:59:12.047Z,7.10
2018-02-19T04:00:12.293Z,6.90
2018-02-19T04:01:12.528Z,6.90
2018-02-19T04:02:12.765Z,7.20
2018-02-19T04:03:13.006Z,6.60
2018-02-19T04:04:13.247Z,7.60
2018-02-19T04:05:13.485Z,7.00
2018-02-19T04:06:13.731Z,7.10
2018-02-19T04:07:13.976Z,7.20
2018-02-19T04:08:14.209Z,7.00
2018-02-19T04:09:14.450Z,6.80
2018-02-19T04:10:14.690Z,7.30
2018-02-19T04:11:14.928Z,7.60
2018-02-19T04:12:15.171Z,6.80
2018-02-19T04:13:15.417Z,7.00
2018-02-19T04:14:15.665Z,6.90
2018-02-19T04:15:15.896Z,6.50
2018-02-19T04:16:16.141Z,7.00
2018-02-19T04:17:16.377Z,7.40
2018-02-19T04:18:16.615Z,7.70
2018-02-19T04:19:16.868Z,6.80
2018-02-19T04:20:17.082Z,7.60
2018-02-19T04:21:17.323Z,7.40
2018-02-19T04:22:17.563Z,7.40
2018-02-19T04:23:17.803Z,7.10
2018-02-19T04:24:18.040Z,6.90
2018-02-19T04:25:18.280Z,7.10
2018-02-19T04:26:18.521Z,7.60
2018-02-19T04:27:18.761Z,7.20
2018-02-19T04:28:19.003Z,6.80
2018-02-19T04:29:19.249Z,7.20
2018-02-19T04:30:19.481Z,6.90
2018-02-19T04:31:19.722Z,7.00
2018-02-19T04:32:19.962Z,7.20
2018-02-19T04:33:20.200Z,7.70
2018-02-19T04:34:20.442Z,6.90
2018-02-19T04:35:20.689Z,7.40
2018-02-19T04:36:20.939Z,7.30
2018-02-19T04:37:21.169Z,7.00
2018-02-19T04:38:21.409Z,7.10
2018-02-19T04:39:21.649Z,7.10
2018-02-19T04:40:21.888Z,7.30
2018-02-19T04:41:22.130Z,7.60
2018-02-19T04:42:22.377Z,7.40
2018-02-19T04:43:22.623Z,7.20
2018-02-19T04:44:22.854Z,7.30
2018-02-19T04:45:23.094Z,7.40
2018-02-19T04:46:23.335Z,7.10
2018-02-19T04:47:23.578Z,7.00
2018-02-19T04:48:23.816Z,7.00
2018-02-19T04:49:24.062Z,7.70
2018-02-19T04:50:31.432Z,7.20
2018-02-19T04:51:31.688Z,7.30
2018-02-19T04:52:31.943Z,7.70
2018-02-19T04:53:32.202Z,7.80
2018-02-19T04:54:32.453Z,7.50
2018-02-19T04:55:32.711Z,7.20
2018-02-19T04:56:32.968Z,7.10
2018-02-19T04:57:33.229Z,7.60
2018-02-19T04:58:26.358Z,7.00
2018-02-19T04:59:26.597Z,7.40
2018-02-19T05:00:26.838Z,7.30
2018-02-19T05:02:58.629Z,7.10
2018-02-19T05:03:58.874Z,7.00
2018-02-19T05:04:59.118Z,7.40
2018-02-19T05:05:59.350Z,7.20
2018-02-19T05:06:59.589Z,7.50
2018-02-19T05:07:59.829Z,7.60
2018-02-19T05:09:00.069Z,7.70
2018-02-19T05:10:00.305Z,7.20
2018-02-19T05:11:00.545Z,7.30
2018-02-19T05:12:00.784Z,7.10
2018-02-19T05:13:01.025Z,7.50
2018-02-19T05:14:01.281Z,7.50
2018-02-19T05:15:01.509Z,7.40
2018-02-19T05:16:01.753Z,7.90
2018-02-19T05:17:01.986Z,7.80
2018-02-19T05:18:02.225Z,7.30
2018-02-19T05:19:02.465Z,7.00
2018-02-19T05:20:02.703Z,7.50
2018-02-19T05:21:02.946Z,7.60
2018-02-19T05:22:03.192Z,7.20
2018-02-19T05:23:03.431Z,7.20
2018-02-19T05:24:03.669Z,6.90
2018-02-19T05:25:03.909Z,7.80
2018-02-19T05:26:04.148Z,7.70
2018-02-19T05:27:04.390Z,7.60
2018-02-19T05:28:04.627Z,7.40
2018-02-19T05:29:04.915Z,8.00
2018-02-19T05:30:05.107Z,7.60
2018-02-19T05:31:05.347Z,7.60
2018-02-19T05:32:05.587Z,7.40
2018-02-19T05:33:05.829Z,7.80
2018-02-19T05:34:06.075Z,7.30
2018-02-19T05:35:06.307Z,7.20
2018-02-19T05:36:06.547Z,7.20
2018-02-19T05:37:06.793Z,7.60
2018-02-19T05:38:07.026Z,7.80
2018-02-19T05:39:07.263Z,7.70
2018-02-19T05:40:07.500Z,8.20
2018-02-19T05:41:07.742Z,7.70
2018-02-19T05:42:07.976Z,7.60
2018-02-19T05:43:08.218Z,7.70
2018-02-19T05:44:08.464Z,7.30
2018-02-19T05:45:08.710Z,7.60
2018-02-19T05:46:08.941Z,7.40
2018-02-19T05:47:09.182Z,7.20
2018-02-19T05:48:09.421Z,7.70
2018-02-19T05:49:09.659Z,7.00
2018-02-19T05:50:09.903Z,7.50
2018-02-19T05:51:10.148Z,7.70
2018-02-19T05:52:10.389Z,7.60
2018-02-19T05:53:10.637Z,8.00
2018-02-19T05:54:10.866Z,7.90
2018-02-19T05:55:11.106Z,7.50
2018-02-19T05:56:11.344Z,7.40
2018-02-19T05:57:11.584Z,7.10
2018-02-19T05:58:11.830Z,7.50
2018-02-19T05:59:12.064Z,7.50
2018-02-19T06:00:12.304Z,7.70
2018-02-19T06:01:12.546Z,7.90
2018-02-19T06:02:12.785Z,8.40
2018-02-19T06:03:13.031Z,7.10
2018-02-19T06:04:13.265Z,7.70
2018-02-19T06:05:13.501Z,8.00
2018-02-19T06:06:13.742Z,7.10
2018-02-19T06:07:13.985Z,7.60
2018-02-19T06:08:14.219Z,8.20
2018-02-19T06:09:14.461Z,7.50
2018-02-19T06:10:14.699Z,7.70
2018-02-19T06:11:14.946Z,7.20
2018-02-19T06:12:15.176Z,7.90
2018-02-19T06:13:15.420Z,7.70
2018-02-19T06:14:15.666Z,7.90
2018-02-19T06:15:15.898Z,7.70
2018-02-19T06:16:16.138Z,7.90
2018-02-19T06:17:16.378Z,7.90
2018-02-19T06:18:16.616Z,8.30
2018-02-19T06:19:16.858Z,7.90
2018-02-19T06:20:17.108Z,7.40
2018-02-19T06:21:17.345Z,7.70
2018-02-19T06:22:17.582Z,7.50
2018-02-19T06:23:17.824Z,7.50
2018-02-19T06:24:18.062Z,8.00
2018-02-19T06:25:18.301Z,8.30
2018-02-19T06:26:18.541Z,8.10
2018-02-19T06:27:18.781Z,7.90
2018-02-19T06:28:19.019Z,8.00
2018-02-19T06:29:19.261Z,7.80
2018-02-19T06:30:19.498Z,8.20
2018-02-19T06:31:19.742Z,7.70
2018-02-19T06:32:19.991Z,8.00
2018-02-19T06:33:20.224Z,7.90
2018-02-19T06:34:20.460Z,7.90
2018-02-19T06:35:20.701Z,7.90
2018-02-19T06:36:20.937Z,7.40
2018-02-19T06:37:21.179Z,8.10
2018-02-19T06:38:21.419Z,7.60
2018-02-19T06:39:21.659Z,8.30
2018-02-19T06:40:21.899Z,8.10
2018-02-19T06:41:22.139Z,8.20
2018-02-19T06:42:22.379Z,7.60
2018-02-19T06:43:22.662Z,8.10
2018-02-19T06:44:22.860Z,8.40
2018-02-19T06:45:23.097Z,8.50
2018-02-19T06:46:23.338Z,8.10
2018-02-19T06:47:23.576Z,8.80
2018-02-19T06:48:23.817Z,8.10
2018-02-19T06:49:24.064Z,7.90
2018-02-19T06:50:24.308Z,8.30
2018-02-19T06:51:24.541Z,8.20
2018-02-19T06:52:24.781Z,8.60
2018-02-19T06:53:25.021Z,8.10
2018-02-19T06:54:25.304Z,8.20
2018-02-19T06:55:25.500Z,7.80
2018-02-19T06:56:25.740Z,8.40
2018-02-19T06:57:25.981Z,7.60
2018-02-19T06:58:26.219Z,8.50
2018-02-19T06:59:26.460Z,7.90
2018-02-19T07:00:26.698Z,8.00
2018-02-19T07:01:26.944Z,7.70
2018-02-19T07:02:27.177Z,8.60
2018-02-19T07:03:27.417Z,8.10
2018-02-19T07:04:27.656Z,8.30
2018-02-19T07:05:27.893Z,8.30
2018-02-19T07:06:28.136Z,8.20
2018-02-19T07:07:28.383Z,8.40
2018-02-19T07:08:28.622Z,8.20
2018-02-19T07:09:28.860Z,8.70
2018-02-19T07:10:29.100Z,8.30
2018-02-19T07:11:29.340Z,7.70
2018-02-19T07:12:29.942Z,8.40
2018-02-19T07:13:30.116Z,8.40
2018-02-19T07:14:30.056Z,7.90
2018-02-19T07:15:30.296Z,8.20
2018-02-19T07:16:30.533Z,8.50
2018-02-19T07:17:30.776Z,7.70
2018-02-19T07:18:31.021Z,8.60
2018-02-19T07:19:31.266Z,8.50
2018-02-19T07:20:31.497Z,8.40
2018-02-19T07:21:31.737Z,7.90
2018-02-19T07:22:31.979Z,8.10
2018-02-19T07:23:32.217Z,8.60
2018-02-19T07:24:32.455Z,8.20
2018-02-19T07:25:32.694Z,8.60
2018-02-19T07:26:32.942Z,8.40
2018-02-19T07:27:33.174Z,8.60
2018-02-19T07:28:33.414Z,8.20
2018-02-19T07:29:33.659Z,8.10
2018-02-19T07:30:33.907Z,7.80
2018-02-19T07:31:34.132Z,8.10
2018-02-19T07:32:34.373Z,8.60
2018-02-19T07:33:34.612Z,8.40
2018-02-19T07:34:35.193Z,8.30
2018-02-19T07:35:35.137Z,8.20
2018-02-19T07:36:35.332Z,9.00
2018-02-19T07:37:35.574Z,9.00
2018-02-19T07:38:35.812Z,8.80
2018-02-19T07:39:36.052Z,9.20
2018-02-19T07:40:36.292Z,8.40
2018-02-19T07:41:36.537Z,8.30
2018-02-19T07:42:36.770Z,8.90
2018-02-19T07:43:37.009Z,8.70
2018-02-19T07:44:44.374Z,8.30
2018-02-19T07:45:37.501Z,8.30
2018-02-19T07:46:45.277Z,7.80
2018-02-19T07:47:45.112Z,8.60
2018-02-19T07:48:45.364Z,8.40
2018-02-19T07:49:45.622Z,8.70
2018-02-19T07:50:44.866Z,8.30
2018-02-19T07:51:45.259Z,7.80
2018-02-19T07:52:39.533Z,8.90
2018-02-19T07:53:39.773Z,9.00
2018-02-19T07:54:40.035Z,8.90
2018-02-19T07:55:40.250Z,9.30
2018-02-19T07:56:40.515Z,8.70
2018-02-19T07:57:41.103Z,8.50
2018-02-19T07:58:41.334Z,8.70
2018-02-19T07:59:41.257Z,8.90
2018-02-19T08:00:41.455Z,8.30
2018-02-19T08:01:42.051Z,8.90
2018-02-19T08:02:42.273Z,8.70
2018-02-19T08:03:42.495Z,8.70
2018-02-19T08:04:42.425Z,8.80
2018-02-19T08:05:42.658Z,9.20
2018-02-19T08:06:42.899Z,8.60
2018-02-19T08:07:43.138Z,8.60
2018-02-19T08:08:43.377Z,9.00
2018-02-19T08:09:43.616Z,9.00
2018-02-19T08:10:43.856Z,8.60
2018-02-19T08:11:44.096Z,8.60
2018-02-19T08:12:44.337Z,8.80
2018-02-19T08:13:44.579Z,8.70
2018-02-19T08:14:44.824Z,8.30
2018-02-19T08:15:45.066Z,8.50
2018-02-19T08:16:45.298Z,8.70
2018-02-19T08:17:45.538Z,9.00
2018-02-19T08:18:45.776Z,8.50
2018-02-19T08:19:46.017Z,8.80
2018-02-19T08:20:46.264Z,8.80
2018-02-19T08:21:46.492Z,8.40
2018-02-19T08:22:46.733Z,8.70
2018-02-19T08:23:46.976Z,9.40
2018-02-19T08:24:47.214Z,9.00
2018-02-19T08:25:47.453Z,8.20
2018-02-19T08:26:47.691Z,8.90
2018-02-19T08:27:47.931Z,8.60
2018-02-19T08:28:48.171Z,8.80
2018-02-19T08:29:48.411Z,8.90
2018-02-19T08:30:48.649Z,8.30
2018-02-19T08:31:48.886Z,8.90
2018-02-19T08:32:49.126Z,8.80
2018-02-19T08:33:49.366Z,8.60
2018-02-19T08:34:49.606Z,9.00
2018-02-19T08:35:49.846Z,8.60
2018-02-19T08:36:50.089Z,9.00
2018-02-19T08:37:50.336Z,9.00
2018-02-19T08:38:50.566Z,8.80
2018-02-19T08:39:50.807Z,8.30
2018-02-19T08:40:51.044Z,8.80
2018-02-19T08:41:51.283Z,8.50
2018-02-19T08:42:51.517Z,8.80
2018-02-19T08:43:51.758Z,8.50
2018-02-19T08:44:51.999Z,8.70
2018-02-19T08:45:52.238Z,9.00
2018-02-19T08:46:52.482Z,9.20
2018-02-19T08:47:52.724Z,9.20
2018-02-19T08:48:53.007Z,8.70
2018-02-19T08:49:53.202Z,9.20
2018-02-19T08:50:53.446Z,9.00
2018-02-19T08:51:53.682Z,9.40
2018-02-19T08:52:53.927Z,9.50
2018-02-19T08:53:54.160Z,9.70
2018-02-19T08:54:54.401Z,9.00
2018-02-19T08:55:54.641Z,8.80
2018-02-19T08:56:54.879Z,8.50
2018-02-19T08:57:55.120Z,9.00
2018-02-19T08:58:55.364Z,8.40
2018-02-19T08:59:55.605Z,8.70
2018-02-19T09:00:55.837Z,8.80
2018-02-19T09:01:56.080Z,9.40
2018-02-19T09:02:56.643Z,8.70
2018-02-19T09:03:56.558Z,8.60
2018-02-19T09:04:56.827Z,9.20
2018-02-19T09:05:57.045Z,8.90
2018-02-19T09:06:57.292Z,8.90
2018-02-19T09:07:57.524Z,9.60
2018-02-19T09:08:57.763Z,9.30
2018-02-19T09:09:58.007Z,9.10
2018-02-19T09:10:58.248Z,9.20
2018-02-19T09:11:58.488Z,9.20
2018-02-19T09:12:58.732Z,9.00
2018-02-19T09:13:58.977Z,9.00
2018-02-19T09:14:59.210Z,9.70
2018-02-19T09:15:59.451Z,9.20
2018-02-19T09:16:59.691Z,9.20
2018-02-19T09:17:59.930Z,9.50
2018-02-19T09:19:00.175Z,8.90
2018-02-19T09:20:00.421Z,8.90
2018-02-19T09:21:00.658Z,8.80
2018-02-19T09:22:00.897Z,9.30
2018-02-19T09:23:01.140Z,9.10
2018-02-19T09:24:01.381Z,8.90
2018-02-19T09:25:01.619Z,9.30
2018-02-19T09:26:01.861Z,9.50
2018-02-19T09:27:02.104Z,8.80
2018-02-19T09:28:02.350Z,8.90
2018-02-19T09:29:02.581Z,9.60
2018-02-19T09:30:02.831Z,9.10
2018-02-19T09:31:03.069Z,9.50
2018-02-19T09:32:03.324Z,9.60
2018-02-19T09:33:03.549Z,9.20
2018-02-19T09:34:03.794Z,9.20
2018-02-19T09:35:04.036Z,9.40
2018-02-19T09:36:04.270Z,9.20
2018-02-19T09:37:04.511Z,9.20
2018-02-19T09:38:04.752Z,9.10
2018-02-19T09:39:04.987Z,8.70
2018-02-19T09:40:05.231Z,9.50
2018-02-19T09:41:05.476Z,9.40
2018-02-19T09:42:05.721Z,9.30
2018-02-19T09:43:05.955Z,9.40
2018-02-19T09:44:06.195Z,9.00
2018-02-19T09:45:06.434Z,8.90
2018-02-19T09:46:06.672Z,9.40
2018-02-19T09:47:06.917Z,10.00
2018-02-19T09:48:07.153Z,9.30
2018-02-19T09:49:07.394Z,9.40
2018-02-19T09:50:07.633Z,9.50
2018-02-19T09:51:07.873Z,9.00
2018-02-19T09:52:08.114Z,9.20
2018-02-19T09:53:08.359Z,9.00
2018-02-19T09:54:08.592Z,8.60
2018-02-19T09:55:08.832Z,8.80
2018-02-19T09:56:09.072Z,10.00
2018-02-19T09:57:09.312Z,9.30
2018-02-19T09:58:09.552Z,9.30
2018-02-19T09:59:09.798Z,9.00
2018-02-19T10:00:10.045Z,9.40
2018-02-19T10:01:10.274Z,9.40
2018-02-19T10:02:10.514Z,9.40
2018-02-19T10:03:10.754Z,10.10
2018-02-19T10:04:10.994Z,9.20
2018-02-19T10:05:11.230Z,9.30
2018-02-19T10:06:11.472Z,9.10
2018-02-19T10:07:11.714Z,9.00
2018-02-19T10:08:11.947Z,9.20
2018-02-19T10:09:12.190Z,9.80
2018-02-19T10:10:12.436Z,8.90
2018-02-19T10:11:12.679Z,9.20
2018-02-19T10:12:12.913Z,8.90
2018-02-19T10:13:13.153Z,9.30
2018-02-19T10:14:13.394Z,8.80
2018-02-19T10:15:13.633Z,9.00
2018-02-19T10:16:13.877Z,9.20
2018-02-19T10:17:14.119Z,9.30
2018-02-19T10:18:14.366Z,9.20
2018-02-19T10:19:14.597Z,9.60
2018-02-19T10:20:14.837Z,8.50
2018-02-19T10:21:15.079Z,8.70
2018-02-19T10:22:15.318Z,9.80
2018-02-19T10:23:15.557Z,10.20
2018-02-19T10:24:15.805Z,9.40
2018-02-19T10:25:16.045Z,9.10
2018-02-19T10:26:16.282Z,8.90
2018-02-19T10:27:16.523Z,8.70
2018-02-19T10:28:16.763Z,8.90
2018-02-19T10:29:17.002Z,8.30
2018-02-19T10:30:17.246Z,9.80
2018-02-19T10:31:17.484Z,10.10
2018-02-19T10:32:17.724Z,9.20
2018-02-19T10:33:25.084Z,9.30
2018-02-19T10:34:25.331Z,9.20
2018-02-19T10:35:25.590Z,9.70
2018-02-19T10:36:25.852Z,9.30
2018-02-19T10:37:19.033Z,8.80
2018-02-19T10:38:25.341Z,9.00
2018-02-19T10:39:19.615Z,9.50
2018-02-19T10:40:19.855Z,9.00
2018-02-19T10:41:20.096Z,8.80
2018-02-19T10:42:20.336Z,9.30
2018-02-19T10:43:20.578Z,10.70
2018-02-19T10:44:20.813Z,8.40
2018-02-19T10:45:21.053Z,9.40
2018-02-19T10:46:21.293Z,10.50
2018-02-19T10:47:21.535Z,9.00
2018-02-19T10:48:21.776Z,10.00
2018-02-19T10:49:22.021Z,8.70
2018-02-19T10:50:22.263Z,9.50
2018-02-19T10:51:22.498Z,10.50
2018-02-19T10:52:23.149Z,9.50
2018-02-19T10:53:22.978Z,9.40
2018-02-19T10:54:23.773Z,9.40
2018-02-19T10:55:23.758Z,9.20
2018-02-19T10:56:23.706Z,9.60
2018-02-19T10:57:23.946Z,8.90
2018-02-19T10:58:24.183Z,9.60
2018-02-19T10:59:24.423Z,8.70
2018-02-19T11:00:24.664Z,8.90
2018-02-19T11:01:24.903Z,8.40
2018-02-19T11:02:25.144Z,9.00
2018-02-19T11:03:25.393Z,9.50
2018-02-19T11:04:25.640Z,8.50
2018-02-19T11:05:25.872Z,8.90
2018-02-19T11:06:26.110Z,8.80
2018-02-19T11:07:26.354Z,10.30
2018-02-19T11:08:26.592Z,8.80
2018-02-19T11:09:26.833Z,9.30
2018-02-19T11:10:27.077Z,9.10
2018-02-19T11:11:27.328Z,8.90
2018-02-19T11:12:27.557Z,9.60
2018-02-19T11:13:27.797Z,8.50
2018-02-19T11:14:28.038Z,8.70
2018-02-19T11:15:28.277Z,8.10
2018-02-19T11:16:28.520Z,8.80
2018-02-19T11:17:28.766Z,9.70
2018-02-19T11:18:29.010Z,8.90
2018-02-19T11:19:29.245Z,9.10
2018-02-19T11:20:29.485Z,8.90
2018-02-19T11:21:29.726Z,8.80
2018-02-19T11:22:29.963Z,9.00
2018-02-19T11:23:30.207Z,8.60
2018-02-19T11:24:30.450Z,8.50
2018-02-19T11:25:30.696Z,9.00
2018-02-19T11:26:30.929Z,9.40
2018-02-19T11:27:31.170Z,8.90
2018-02-19T11:28:31.411Z,8.20
2018-02-19T11:29:31.650Z,9.10
2018-02-19T11:30:31.892Z,9.00
2018-02-19T11:31:32.137Z,9.10
2018-02-19T11:32:32.382Z,9.10
2018-02-19T11:33:32.615Z,8.90
2018-02-19T11:34:32.854Z,8.70
2018-02-19T11:35:33.099Z,8.70
2018-02-19T11:36:34.053Z,8.80
2018-02-19T11:37:34.224Z,8.90
2018-02-19T11:38:34.403Z,8.70
2018-02-19T11:39:34.069Z,9.10
2018-02-19T11:40:34.304Z,8.60
2018-02-19T11:41:34.546Z,8.30
2018-02-19T11:42:34.786Z,8.80
2018-02-19T11:43:35.026Z,8.10
2018-02-19T11:44:35.267Z,8.70
2018-02-19T11:45:35.510Z,9.00
2018-02-19T11:46:35.755Z,9.90
2018-02-19T11:47:35.989Z,8.20
2018-02-19T11:48:36.229Z,8.90
2018-02-19T11:49:36.470Z,9.00
2018-02-19T11:50:36.705Z,8.50
2018-02-19T11:51:36.949Z,8.90
2018-02-19T11:52:37.200Z,8.50
2018-02-19T11:53:37.444Z,8.50
2018-02-19T11:54:37.679Z,8.50
2018-02-19T11:55:37.917Z,8.40
2018-02-19T11:56:38.161Z,8.60
2018-02-19T11:57:38.395Z,8.00
2018-02-19T11:58:38.643Z,8.60
2018-02-19T11:59:38.884Z,8.70
2018-02-19T12:00:39.129Z,8.60
2018-02-19T12:01:39.362Z,8.40
2018-02-19T12:02:39.602Z,9.00
2018-02-19T12:03:39.843Z,8.80
2018-02-19T12:04:40.082Z,8.40
2018-02-19T12:05:40.325Z,8.60
2018-02-19T12:06:40.568Z,7.90
2018-02-19T12:07:40.814Z,8.70
2018-02-19T12:08:41.046Z,9.10
2018-02-19T12:09:41.285Z,8.30
2018-02-19T12:10:41.529Z,9.00
2018-02-19T12:11:41.778Z,8.70
2018-02-19T12:12:42.018Z,8.50
2018-02-19T12:13:42.253Z,8.60
2018-02-19T12:14:42.500Z,9.10
2018-02-19T12:15:42.731Z,8.50
2018-02-19T12:16:42.972Z,8.50
2018-02-19T12:17:43.212Z,8.50
2018-02-19T12:18:43.450Z,8.70
2018-02-19T12:19:43.696Z,8.80
2018-02-19T12:20:43.939Z,7.60
2018-02-19T12:21:44.179Z,8.50
2018-02-19T12:22:44.419Z,8.60
2018-02-19T12:23:44.658Z,8.40
2018-02-19T12:24:44.898Z,9.00
2018-02-19T12:25:45.136Z,8.30
2018-02-19T12:26:45.378Z,8.30
2018-02-19T12:27:45.631Z,8.90
2018-02-19T12:28:45.861Z,8.50
2018-02-19T12:29:46.104Z,9.10
2018-02-19T12:30:46.351Z,8.60
2018-02-19T12:31:46.592Z,8.30
2018-02-19T12:32:46.834Z,8.00
2018-02-19T12:33:47.090Z,8.80
2018-02-19T12:34:47.313Z,8.00
2018-02-19T12:35:47.559Z,8.30
2018-02-19T12:36:47.793Z,8.10
2018-02-19T12:37:48.032Z,8.00
2018-02-19T12:38:48.273Z,8.40
2018-02-19T12:39:48.511Z,7.70
2018-02-19T12:40:48.754Z,8.30
2018-02-19T12:41:49.000Z,8.10
2018-02-19T12:42:49.246Z,8.90
2018-02-19T12:43:49.478Z,8.30
2018-02-19T12:44:49.718Z,8.10
2018-02-19T12:45:49.956Z,8.30
2018-02-19T12:46:50.195Z,9.00
2018-02-19T12:47:50.435Z,8.20
2018-02-19T12:48:50.675Z,8.10
2018-02-19T12:49:50.916Z,7.50
2018-02-19T12:50:51.157Z,8.00
2018-02-19T12:51:51.397Z,7.70
2018-02-19T12:52:51.637Z,8.00
2018-02-19T12:53:51.886Z,7.80
2018-02-19T12:54:52.120Z,7.70
2018-02-19T12:55:52.361Z,8.40
2018-02-19T12:56:52.600Z,8.70
2018-02-19T12:57:52.841Z,8.20
2018-02-19T12:58:53.081Z,8.20
2018-02-19T12:59:53.351Z,8.10
2018-02-19T13:00:53.567Z,8.40
2018-02-19T13:01:53.802Z,7.90
2018-02-19T13:02:54.043Z,7.90
2018-02-19T13:03:54.283Z,7.90
2018-02-19T13:04:54.521Z,8.10
2018-02-19T13:05:54.763Z,8.20
2018-02-19T13:06:55.008Z,8.10
2018-02-19T13:07:55.253Z,8.30
2018-02-19T13:08:55.635Z,7.90
2018-02-19T13:09:55.762Z,8.20
2018-02-19T13:10:56.003Z,8.70
2018-02-19T13:11:56.244Z,8.10
2018-02-19T13:12:56.491Z,7.90
2018-02-19T13:13:56.721Z,7.60
2018-02-19T13:14:56.958Z,7.50
2018-02-19T13:15:57.198Z,8.90
2018-02-19T13:16:57.443Z,7.70
2018-02-19T13:17:57.687Z,7.90
2018-02-19T13:18:57.924Z,8.10
2018-02-19T13:19:58.168Z,8.60
2018-02-19T13:20:58.414Z,8.00
2018-02-19T13:21:58.651Z,7.90
2018-02-19T13:22:58.886Z,7.80